Time;durP1;ratioP1;P1;durP2;ratioP2;P2;SDS_P1;SDS_P2;PMS_P1;PMS_P2;Temp;Humidity;BMP_temperature;BMP_pressure;BME280_temperature;BME280_humidity;BME280_pressure;Samples;Min_cycle;Max_cycle;Signal;HPM_P1;HPM_P2
2022/07/13 00:02:05;;;;;;;1.67;1.50;;;;;;;11.73;77.54;98322.03;6252176;28;20226;-68
2022/07/13 00:05:08;;;;;;;1.87;1.77;;;;;;;11.69;77.85;98325.88;6251851;28;20230;-68
2022/07/13 00:08:10;;;;;;;3.23;2.00;;;;;;;11.66;77.90;98339.34;6233680;28;20822;-70
2022/07/13 00:11:12;;;;;;;1.50;1.40;;;;;;;11.66;77.88;98331.41;6252133;28;20234;-67
2022/07/13 00:14:14;;;;;;;2.50;1.90;;;;;;;11.68;77.86;98339.22;6252052;28;20640;-68
2022/07/13 00:17:17;;;;;;;4.00;1.80;;;;;;;11.71;77.65;98339.81;6234527;28;20222;-68
2022/07/13 00:20:19;;;;;;;1.97;1.70;;;;;;;11.74;77.68;98336.97;6252394;28;20527;-68
2022/07/13 00:23:21;;;;;;;1.47;1.33;;;;;;;11.68;77.93;98328.66;6256479;28;20586;-68
2022/07/13 00:26:23;;;;;;;1.43;1.33;;;;;;;11.63;77.59;98326.34;6255890;28;20227;-68
2022/07/13 00:29:25;;;;;;;1.77;1.60;;;;;;;11.61;78.04;98325.59;6256518;28;20232;-68
2022/07/13 00:32:27;;;;;;;1.77;1.53;;;;;;;11.62;78.27;98324.66;6238778;28;20234;-67
2022/07/13 00:35:30;;;;;;;1.50;1.40;;;;;;;11.63;78.15;98320.19;6238847;28;20223;-68
2022/07/13 00:38:32;;;;;;;2.73;1.60;;;;;;;11.61;78.11;98320.31;6254528;28;20226;-68
2022/07/13 00:41:34;;;;;;;1.77;1.60;;;;;;;11.59;78.17;98316.94;6248091;28;20235;-68
2022/07/13 00:44:36;;;;;;;1.97;1.87;;;;;;;11.57;78.08;98313.59;6237777;28;20724;-68
2022/07/13 00:47:38;;;;;;;1.50;1.40;;;;;;;11.55;78.24;98314.66;6255031;28;20804;-68
2022/07/13 00:50:41;;;;;;;1.87;1.67;;;;;;;11.55;78.13;98312.00;6254943;28;20221;-70
2022/07/13 00:53:44;;;;;;;3.23;1.70;;;;;;;11.53;78.31;98316.56;6256270;28;20237;-71
2022/07/13 00:56:47;;;;;;;2.27;1.37;;;;;;;11.54;78.58;98320.88;6237466;28;20572;-68
2022/07/13 00:59:49;;;;;;;2.50;1.43;;;;;;;11.48;78.81;98310.78;6213897;28;20232;-68
2022/07/13 01:02:51;;;;;;;1.50;1.40;;;;;;;11.44;78.25;98312.78;6230846;28;20316;-68
2022/07/13 01:05:54;;;;;;;1.83;1.40;;;;;;;11.43;78.54;98316.38;6255579;28;20590;-69
2022/07/13 01:08:56;;;;;;;1.50;1.40;;;;;;;11.39;78.92;98310.47;6237636;28;20313;-69
2022/07/13 01:11:59;;;;;;;1.57;1.43;;;;;;;11.35;78.97;98310.81;6255613;28;20364;-69
2022/07/13 01:15:01;;;;;;;2.17;1.50;;;;;;;11.30;79.34;98307.66;6255066;28;20306;-68
2022/07/13 01:18:03;;;;;;;1.40;1.30;;;;;;;11.26;79.28;98307.06;6236337;28;20277;-68
2022/07/13 01:21:05;;;;;;;3.73;1.70;;;;;;;11.23;79.59;98303.78;6238494;28;20691;-68
2022/07/13 01:24:07;;;;;;;2.03;1.60;;;;;;;11.21;79.75;98295.97;6255171;28;20240;-69
2022/07/13 01:27:10;;;;;;;1.70;1.60;;;;;;;11.21;79.70;98301.25;6237219;28;20216;-69
2022/07/13 01:30:13;;;;;;;1.53;1.43;;;;;;;11.18;79.78;98298.00;6237786;28;20226;-69
2022/07/13 01:33:16;;;;;;;2.30;1.70;;;;;;;11.15;79.80;98311.44;6237156;28;20221;-68
2022/07/13 01:36:18;;;;;;;1.40;1.30;;;;;;;11.13;79.67;98306.25;6254718;28;20764;-69
2022/07/13 01:39:24;;;;;;;2.23;1.50;;;;;;;11.06;80.06;98305.88;6236238;28;20249;-69
2022/07/13 01:42:26;;;;;;;1.63;1.53;;;;;;;10.98;80.24;98297.63;6255310;28;20236;-69
2022/07/13 01:45:29;;;;;;;1.47;1.37;;;;;;;10.95;80.51;98302.31;6236821;28;20242;-69
2022/07/13 01:48:31;;;;;;;1.60;1.50;;;;;;;10.94;80.13;98298.81;6254468;28;20299;-69
2022/07/13 01:51:33;;;;;;;2.27;1.60;;;;;;;10.92;80.31;98298.09;6220947;28;20287;-69
2022/07/13 01:54:35;;;;;;;1.53;1.33;;;;;;;10.89;79.90;98290.38;6232016;28;20713;-68
2022/07/13 01:57:37;;;;;;;2.07;1.40;;;;;;;10.85;80.26;98293.34;6246200;28;20598;-71
2022/07/13 02:00:39;;;;;;;1.27;1.17;;;;;;;10.79;81.16;98289.34;6253214;28;20314;-70
2022/07/13 02:03:42;;;;;;;3.00;1.70;;;;;;;10.77;81.26;98287.78;6236038;28;20289;-69
2022/07/13 02:06:44;;;;;;;2.90;1.27;;;;;;;10.70;81.19;98290.84;6236485;28;20427;-71
2022/07/13 02:09:47;;;;;;;1.20;1.10;;;;;;;10.66;81.42;98294.66;6234343;28;20233;-70
2022/07/13 02:12:49;;;;;;;1.37;1.27;;;;;;;10.64;81.07;98293.94;6235599;28;20225;-72
2022/07/13 02:15:51;;;;;;;1.57;1.47;;;;;;;10.66;81.08;98281.47;6236691;28;20234;-71
2022/07/13 02:18:54;;;;;;;1.40;1.30;;;;;;;10.70;81.43;98284.72;6235393;28;20230;-71
2022/07/13 02:21:56;;;;;;;1.57;1.43;;;;;;;10.68;80.79;98297.22;6236348;28;20233;-71
2022/07/13 02:24:59;;;;;;;1.50;1.40;;;;;;;10.64;81.46;98282.53;6253012;28;20328;-70
2022/07/13 02:28:01;;;;;;;3.07;1.50;;;;;;;10.61;81.40;98291.50;6236646;28;20240;-70
2022/07/13 02:31:04;;;;;;;1.40;1.30;;;;;;;10.58;81.41;98283.78;6253414;28;20229;-70
2022/07/13 02:34:06;;;;;;;1.63;1.50;;;;;;;10.55;81.46;98289.31;6236628;28;20228;-70
2022/07/13 02:37:11;;;;;;;1.50;1.40;;;;;;;10.55;81.50;98297.22;6251765;28;20366;-70
2022/07/13 02:40:13;;;;;;;1.77;1.37;;;;;;;10.54;81.60;98286.78;6235868;28;20307;-70
2022/07/13 02:43:21;;;;;;;1.77;1.30;;;;;;;10.52;81.87;98289.50;6227254;28;20602;-70
2022/07/13 02:46:23;;;;;;;1.57;1.47;;;;;;;10.49;82.02;98283.59;6249564;28;20236;-70
2022/07/13 02:49:25;;;;;;;1.30;1.20;;;;;;;10.46;82.11;98287.31;6251867;28;20712;-70
2022/07/13 02:52:28;;;;;;;2.43;1.30;;;;;;;10.48;82.30;98290.66;6236378;28;20329;-70
2022/07/13 02:55:30;;;;;;;1.47;1.20;;;;;;;10.46;82.46;98282.03;6235683;28;20315;-70
2022/07/13 02:58:33;;;;;;;1.50;1.40;;;;;;;10.49;82.54;98276.53;6252618;28;20233;-70
2022/07/13 03:01:45;;;;;;;1.60;1.50;;;;;;;10.53;82.28;98285.06;6257702;28;20604;-69
2022/07/13 03:04:47;;;;;;;2.43;1.43;;;;;;;10.50;82.16;98285.28;6218573;28;20264;-70
2022/07/13 03:07:50;;;;;;;1.90;1.50;;;;;;;10.48;82.18;98280.09;6186770;28;20230;-71
2022/07/13 03:10:52;;;;;;;1.87;1.37;;;;;;;10.45;82.78;98272.44;6204167;28;20230;-69
2022/07/13 03:13:54;;;;;;;1.63;1.53;;;;;;;10.47;82.97;98281.09;6204238;28;20731;-68
2022/07/13 03:16:56;;;;;;;1.50;1.40;;;;;;;10.49;82.62;98287.06;6203414;28;20604;-68
2022/07/13 03:19:59;;;;;;;1.77;1.40;;;;;;;10.47;82.20;98280.25;6202697;28;20231;-69
2022/07/13 03:23:01;;;;;;;1.47;1.20;;;;;;;10.48;82.82;98281.94;6202309;28;20556;-69
2022/07/13 03:26:04;;;;;;;2.17;1.60;;;;;;;10.48;82.86;98285.38;6202940;28;20769;-69
2022/07/13 03:29:07;;;;;;;1.63;1.43;;;;;;;10.48;82.49;98281.94;6202921;28;20233;-69
2022/07/13 03:32:09;;;;;;;2.53;1.60;;;;;;;10.48;83.01;98284.56;6203047;28;20229;-68
2022/07/13 03:35:12;;;;;;;1.50;1.40;;;;;;;10.47;82.98;98281.09;6203648;28;20888;-70
2022/07/13 03:38:15;;;;;;;1.73;1.57;;;;;;;10.49;83.46;98287.06;6203023;28;20695;-69
2022/07/13 03:41:17;;;;;;;1.90;1.47;;;;;;;10.56;83.11;98300.72;6202601;28;20239;-69
2022/07/13 03:44:19;;;;;;;2.93;1.47;;;;;;;10.58;83.03;98293.53;6194753;28;20246;-69
2022/07/13 03:47:21;;;;;;;1.67;1.30;;;;;;;10.60;83.18;98292.44;6188818;28;20226;-69
2022/07/13 03:50:23;;;;;;;2.33;1.30;;;;;;;10.64;82.67;98288.66;6204194;28;20222;-70
2022/07/13 03:53:26;;;;;;;2.40;1.53;;;;;;;10.70;82.86;98290.00;6203820;28;20239;-69
2022/07/13 03:56:28;;;;;;;1.90;1.60;;;;;;;10.75;82.64;98290.53;6221579;28;20241;-69
2022/07/13 03:59:30;;;;;;;2.67;1.30;;;;;;;10.81;82.77;98297.16;6206733;28;20230;-70
2022/07/13 04:02:32;;;;;;;1.83;1.47;;;;;;;10.86;82.32;98287.97;6215338;28;20298;-69
2022/07/13 04:05:34;;;;;;;1.50;1.20;;;;;;;10.92;82.64;98286.69;6256277;28;20236;-69
2022/07/13 04:08:36;;;;;;;2.63;1.33;;;;;;;10.93;82.34;98291.84;6254289;28;20691;-69
2022/07/13 04:11:39;;;;;;;2.47;1.60;;;;;;;10.97;82.11;98295.97;6239451;28;20607;-69
2022/07/13 04:14:41;;;;;;;1.40;1.30;;;;;;;11.04;82.52;98283.16;6239318;28;20713;-69
2022/07/13 04:17:44;;;;;;;3.03;1.50;;;;;;;11.12;82.39;98286.06;6221951;28;20244;-69
2022/07/13 04:20:46;;;;;;;1.30;1.20;;;;;;;11.16;82.11;98286.72;6223296;28;20236;-69
2022/07/13 04:23:49;;;;;;;3.00;1.37;;;;;;;11.26;82.14;98288.56;6255068;28;20705;-69
2022/07/13 04:26:51;;;;;;;1.10;1.10;;;;;;;11.37;82.19;98280.69;6239551;28;20705;-69
2022/07/13 04:29:53;;;;;;;1.60;1.50;;;;;;;11.46;81.88;98281.81;6238980;28;20553;-69
2022/07/13 04:32:56;;;;;;;1.20;1.10;;;;;;;11.58;81.55;98286.16;6238648;28;20236;-70
2022/07/13 04:35:59;;;;;;;1.40;1.30;;;;;;;11.66;81.63;98282.97;6254751;28;20225;-70
2022/07/13 04:39:00;;;;;;;2.60;1.43;;;;;;;11.73;81.67;98285.03;6256118;28;20676;-69
2022/07/13 04:42:03;;;;;;;1.70;1.13;;;;;;;11.82;81.83;98288.81;6237685;28;20266;-68
2022/07/13 04:45:06;;;;;;;1.07;0.97;;;;;;;11.99;80.97;98280.44;6237802;28;20218;-69
2022/07/13 04:48:08;;;;;;;1.23;1.13;;;;;;;12.53;78.48;98277.13;6254268;28;20812;-69
2022/07/13 04:51:10;;;;;;;1.67;0.97;;;;;;;12.88;77.06;98290.19;6237476;28;20210;-70
2022/07/13 04:54:19;;;;;;;1.93;1.10;;;;;;;13.15;75.94;98292.50;6238001;28;20210;-70
2022/07/13 04:57:21;;;;;;;3.47;1.23;;;;;;;13.65;72.53;98296.31;6229300;28;20211;-69
2022/07/13 05:00:23;;;;;;;1.37;1.10;;;;;;;14.52;67.52;98283.59;6229858;28;20687;-70
2022/07/13 05:03:25;;;;;;;1.77;1.27;;;;;;;15.17;64.37;98287.63;6236292;28;20227;-69
2022/07/13 05:06:28;;;;;;;3.30;1.20;;;;;;;15.52;62.60;98275.47;6254593;28;20670;-70
2022/07/13 05:09:30;;;;;;;1.30;1.03;;;;;;;15.81;63.21;98282.63;6236277;28;20227;-70
2022/07/13 05:12:40;;;;;;;1.50;1.20;;;;;;;16.12;61.57;98276.16;6254930;28;20228;-70
2022/07/13 05:15:45;;;;;;;0.83;0.70;;;;;;;16.52;59.43;98277.72;6254672;28;20226;-70
2022/07/13 05:18:47;;;;;;;2.93;1.20;;;;;;;16.84;58.77;98277.34;6236778;28;20230;-70
2022/07/13 05:21:56;;;;;;;1.30;1.20;;;;;;;17.06;58.22;98287.63;6237836;28;20233;-72
2022/07/13 05:25:00;;;;;;;1.10;1.00;;;;;;;17.28;57.51;98270.34;6221150;28;20261;-70
2022/07/13 05:28:03;;;;;;;1.77;1.27;;;;;;;17.44;56.27;98273.19;6236855;28;20227;-70
2022/07/13 05:31:05;;;;;;;2.13;1.20;;;;;;;17.51;56.79;98268.91;6238642;28;20223;-70
2022/07/13 05:34:08;;;;;;;1.77;1.10;;;;;;;17.54;56.18;98263.28;6253899;28;20902;-70
2022/07/13 05:37:15;;;;;;;0.97;0.97;;;;;;;17.56;55.86;98276.47;6237457;28;20535;-71
2022/07/13 05:40:18;;;;;;;1.37;1.10;;;;;;;17.51;55.61;98271.59;6221446;28;20399;-70
2022/07/13 05:43:20;;;;;;;2.03;1.10;;;;;;;17.56;55.80;98273.81;6235857;28;20261;-70
2022/07/13 05:46:22;;;;;;;0.97;0.90;;;;;;;17.52;55.90;98269.75;6237190;28;20241;-70
2022/07/13 05:49:25;;;;;;;1.00;1.00;;;;;;;17.52;56.05;98275.94;6236346;28;20238;-71
2022/07/13 05:52:27;;;;;;;1.07;0.97;;;;;;;17.45;55.73;98268.69;6253337;28;20238;-71
2022/07/13 05:55:29;;;;;;;1.67;1.10;;;;;;;17.49;55.43;98272.72;6252310;28;20706;-70
2022/07/13 05:58:32;;;;;;;1.37;0.93;;;;;;;17.51;55.03;98263.56;6254466;28;20227;-69
2022/07/13 06:02:00;;;;;;;1.20;1.10;;;;;;;17.47;55.24;98266.72;6253861;28;20223;-70
2022/07/13 06:05:02;;;;;;;3.13;1.20;;;;;;;17.46;55.78;98265.88;6254137;28;20231;-71
2022/07/13 06:08:04;;;;;;;1.63;1.10;;;;;;;17.51;55.32;98268.06;6253019;28;20281;-71
2022/07/13 06:11:06;;;;;;;1.37;1.27;;;;;;;17.54;55.39;98275.78;6253018;28;20219;-70
2022/07/13 06:14:09;;;;;;;1.57;1.10;;;;;;;17.49;55.43;98270.88;6236917;28;20364;-70
2022/07/13 06:17:11;;;;;;;1.33;1.13;;;;;;;17.62;55.22;98266.06;6253831;28;20775;-71
2022/07/13 06:20:13;;;;;;;1.40;1.30;;;;;;;17.69;55.19;98274.28;6235935;28;20227;-71
2022/07/13 06:23:16;;;;;;;1.10;0.90;;;;;;;17.76;55.05;98277.19;6253077;28;20710;-71
2022/07/13 06:26:18;;;;;;;1.27;1.00;;;;;;;17.96;54.36;98276.03;6253090;28;20234;-71
2022/07/13 06:29:20;;;;;;;1.63;1.20;;;;;;;18.11;54.47;98271.78;6253292;28;20296;-71
2022/07/13 06:32:22;;;;;;;1.23;1.00;;;;;;;18.28;54.61;98262.88;6236444;28;20317;-71
2022/07/13 06:35:25;;;;;;;1.00;0.90;;;;;;;18.50;54.37;98269.53;6252622;28;20223;-70
2022/07/13 06:38:27;;;;;;;2.60;1.30;;;;;;;18.68;53.60;98275.66;6252883;28;20269;-71
2022/07/13 06:41:29;;;;;;;2.27;1.00;;;;;;;18.98;52.66;98276.13;6253311;28;20274;-69
2022/07/13 06:44:31;;;;;;;0.97;0.97;;;;;;;19.24;52.33;98276.91;6252936;28;20254;-70
2022/07/13 06:47:33;;;;;;;1.07;0.90;;;;;;;19.34;53.10;98272.25;6235245;28;20234;-70
2022/07/13 06:50:35;;;;;;;1.70;1.20;;;;;;;19.72;50.71;98264.63;6251962;28;20635;-70
2022/07/13 06:53:37;;;;;;;1.00;0.90;;;;;;;20.33;48.71;98260.59;6252612;28;20327;-71
2022/07/13 06:56:39;;;;;;;1.20;0.90;;;;;;;20.76;48.34;98244.09;6252624;28;20651;-71
2022/07/13 06:59:42;;;;;;;0.90;0.90;;;;;;;20.87;48.17;98250.88;6252483;28;20365;-71
2022/07/13 07:02:44;;;;;;;1.37;1.00;;;;;;;21.10;47.49;98253.66;6234892;28;20587;-71
2022/07/13 07:05:46;;;;;;;0.93;0.90;;;;;;;21.36;46.61;98257.72;6235161;28;20297;-70
2022/07/13 07:08:48;;;;;;;0.83;0.80;;;;;;;21.55;46.01;98258.28;6252133;28;20732;-71
2022/07/13 07:11:50;;;;;;;1.00;0.90;;;;;;;21.79;45.80;98251.88;6252080;28;20373;-71
2022/07/13 07:14:52;;;;;;;0.87;0.80;;;;;;;22.10;45.13;98258.03;6251830;28;20255;-71
2022/07/13 07:17:54;;;;;;;1.10;1.00;;;;;;;22.30;44.46;98248.44;6252966;28;20377;-71
2022/07/13 07:20:56;;;;;;;0.87;0.87;;;;;;;22.70;43.97;98249.88;6251512;28;20748;-72
2022/07/13 07:23:58;;;;;;;1.50;1.00;;;;;;;22.85;43.56;98254.44;6252182;28;20583;-71
2022/07/13 07:27:02;;;;;;;1.60;1.07;;;;;;;23.11;43.16;98254.78;6252311;28;20706;-71
2022/07/13 07:30:04;;;;;;;1.00;0.90;;;;;;;23.47;42.91;98252.91;6254408;28;20219;-70
2022/07/13 07:33:06;;;;;;;1.20;1.00;;;;;;;23.73;42.29;98248.88;6256511;28;20591;-71
2022/07/13 07:36:08;;;;;;;2.00;1.30;;;;;;;23.86;40.86;98246.28;6256047;28;20592;-72
2022/07/13 07:39:12;;;;;;;3.77;1.10;;;;;;;23.70;40.70;98243.84;6256687;28;20226;-71
2022/07/13 07:42:14;;;;;;;1.23;0.73;;;;;;;24.17;40.17;98245.91;6231758;28;20318;-71
2022/07/13 07:45:16;;;;;;;1.10;1.00;;;;;;;24.41;39.98;98248.22;6244158;28;20225;-71
2022/07/13 07:48:18;;;;;;;1.77;0.90;;;;;;;24.99;39.61;98252.34;6256338;28;20222;-71
2022/07/13 07:51:22;;;;;;;2.07;0.90;;;;;;;25.09;39.17;98249.25;6239175;28;20231;-71
2022/07/13 07:54:25;;;;;;;1.10;0.90;;;;;;;25.16;38.74;98252.81;6239672;28;20223;-71
2022/07/13 07:57:27;;;;;;;1.37;0.90;;;;;;;25.02;38.27;98258.38;6257048;28;20227;-72
2022/07/13 08:00:30;;;;;;;2.00;0.70;;;;;;;25.31;37.97;98252.69;6239135;28;20364;-71
2022/07/13 08:03:32;;;;;;;1.75;1.02;;;;;;;25.34;37.78;98241.47;6240770;28;20261;-71
2022/07/13 08:06:35;;;;;;;2.17;0.90;;;;;;;25.61;37.39;98240.53;6242043;28;20227;-71
2022/07/13 08:09:37;;;;;;;1.33;0.75;;;;;;;25.86;35.96;98248.03;6255562;28;20253;-71
2022/07/13 08:12:40;;;;;;;0.70;0.70;;;;;;;25.84;36.77;98242.84;6260833;28;20245;-71
2022/07/13 08:15:42;;;;;;;0.82;0.70;;;;;;;26.20;36.31;98236.19;6256440;28;20333;-72
2022/07/13 08:18:45;;;;;;;0.82;0.68;;;;;;;26.44;36.07;98236.44;6240358;28;20599;-71
2022/07/13 08:22:07;;;;;;;2.58;1.00;;;;;;;26.28;36.06;98238.72;6255710;28;20300;-72
2022/07/13 08:25:10;;;;;;;0.82;0.80;;;;;;;26.40;35.70;98240.59;6238189;28;20222;-71
2022/07/13 08:28:12;;;;;;;1.52;0.88;;;;;;;26.52;35.57;98221.84;6255096;28;20292;-72
2022/07/13 08:31:14;;;;;;;1.38;0.80;;;;;;;26.95;34.64;98226.75;6256249;28;20234;-71
2022/07/13 08:40:57;;;;;;;2.90;1.15;;;;;;;27.80;33.63;98222.75;6260430;28;20267;-72
2022/07/13 08:44:01;;;;;;;0.77;0.73;;;;;;;27.79;33.97;98245.50;6237639;28;20237;-72
2022/07/13 08:47:05;;;;;;;1.48;0.88;;;;;;;27.67;34.20;98231.81;6237195;28;20286;-70
2022/07/13 08:50:09;;;;;;;0.75;0.75;;;;;;;27.75;33.02;98236.16;6237445;28;20322;-71
2022/07/13 08:53:12;;;;;;;0.60;0.60;;;;;;;27.81;32.52;98241.53;6256525;28;20703;-72
2022/07/13 08:56:14;;;;;;;2.35;0.80;;;;;;;27.79;32.69;98238.22;6254902;28;20337;-71
2022/07/13 08:59:16;;;;;;;0.95;0.90;;;;;;;27.74;32.54;98240.75;6237394;28;20235;-71
2022/07/13 09:02:19;;;;;;;0.60;0.60;;;;;;;28.00;32.74;98236.19;6254436;28;20825;-72
2022/07/13 09:05:23;;;;;;;1.75;0.60;;;;;;;28.33;32.21;98236.78;6237691;28;20300;-72
2022/07/13 09:08:25;;;;;;;0.68;0.68;;;;;;;28.63;31.77;98229.59;6254853;28;20608;-72
2022/07/13 09:11:27;;;;;;;1.10;0.80;;;;;;;29.15;31.47;98231.97;6254327;28;20309;-73
2022/07/13 09:14:30;;;;;;;1.30;0.80;;;;;;;29.39;30.21;98233.75;6255103;28;20231;-73
2022/07/13 09:17:43;;;;;;;0.73;0.73;;;;;;;28.93;30.05;98234.31;6253678;28;20374;-74
2022/07/13 09:20:47;;;;;;;0.70;0.70;;;;;;;29.03;29.51;98245.47;6254342;28;20310;-73
2022/07/13 09:23:54;;;;;;;0.82;0.82;;;;;;;29.11;29.65;98228.03;6274906;28;20272;-72
2022/07/13 09:26:57;;;;;;;1.88;0.60;;;;;;;29.51;30.32;98226.47;6212479;28;20701;-73
2022/07/13 09:29:59;;;;;;;1.63;0.73;;;;;;;29.79;28.87;98209.53;6225873;28;20318;-71
2022/07/13 09:33:03;;;;;;;2.55;0.93;;;;;;;30.08;29.73;98221.44;6236605;28;20370;-71
2022/07/13 09:36:09;;;;;;;0.80;0.70;;;;;;;29.45;29.47;98224.66;6254548;28;20643;-70
2022/07/13 09:39:11;;;;;;;0.70;0.70;;;;;;;29.31;30.38;98218.56;6236534;28;20219;-71
2022/07/13 09:42:26;;;;;;;1.75;0.73;;;;;;;29.34;28.97;98220.81;6229268;28;20734;-71
2022/07/13 09:48:49;;;;;;;0.98;0.60;;;;;;;30.01;28.55;98207.13;6235902;28;20669;-71
2022/07/13 09:51:57;;;;;;;0.88;0.70;;;;;;;30.40;29.25;98221.94;6253725;28;20319;-71
2022/07/13 09:55:04;;;;;;;1.85;0.90;;;;;;;30.39;29.01;98209.38;6234901;28;20227;-70
2022/07/13 09:58:09;;;;;;;0.60;0.60;;;;;;;30.76;28.21;98208.06;6254087;28;20321;-70
2022/07/13 10:01:11;;;;;;;0.60;0.60;;;;;;;30.40;27.66;98222.78;6254309;28;20231;-71
2022/07/13 10:04:14;;;;;;;1.83;0.90;;;;;;;30.18;29.04;98223.59;6253829;28;20318;-71
2022/07/13 10:07:37;;;;;;;3.17;0.88;;;;;;;30.24;28.37;98220.78;6253406;28;20726;-71
2022/07/13 10:10:39;;;;;;;0.68;0.68;;;;;;;30.69;28.94;98209.28;6241042;28;20592;-70
2022/07/13 10:13:44;;;;;;;3.28;0.70;;;;;;;30.80;28.25;98208.44;6237972;28;20239;-71
2022/07/13 10:16:46;;;;;;;0.90;0.90;;;;;;;30.56;28.29;98210.34;6237066;28;20281;-71
2022/07/13 10:19:58;;;;;;;1.42;1.02;;;;;;;30.73;28.04;98203.13;6236312;28;20242;-69
2022/07/13 10:23:01;;;;;;;0.93;0.80;;;;;;;30.62;28.30;98201.25;6253366;28;20596;-71
2022/07/13 10:26:20;;;;;;;1.77;0.80;;;;;;;31.12;28.86;98209.72;6235357;28;20227;-72
2022/07/13 10:29:24;;;;;;;1.85;0.70;;;;;;;31.43;27.79;98200.22;6235642;28;20223;-72
2022/07/13 10:32:28;;;;;;;1.50;0.90;;;;;;;31.30;27.71;98192.31;6252565;28;20233;-72
2022/07/13 10:35:47;;;;;;;2.60;0.90;;;;;;;31.46;27.78;98186.06;6235155;28;20227;-72
2022/07/13 10:39:09;;;;;;;0.65;0.63;;;;;;;31.54;28.34;98188.41;6251580;28;20314;-72
2022/07/13 10:42:11;;;;;;;2.63;0.77;;;;;;;31.75;27.74;98195.09;6210468;28;20264;-72
2022/07/13 10:45:52;;;;;;;2.15;0.80;;;;;;;31.80;27.92;98199.81;6247044;28;20226;-72
2022/07/13 10:49:33;;;;;;;1.85;0.80;;;;;;;31.91;26.71;98185.25;6251786;28;20813;-72
2022/07/13 10:52:41;;;;;;;1.67;0.88;;;;;;;32.12;26.21;98192.72;6234857;28;20772;-71
2022/07/13 10:56:03;;;;;;;0.93;0.73;;;;;;;32.25;26.18;98191.56;6239973;28;20243;-71
2022/07/13 10:59:06;;;;;;;1.42;0.68;;;;;;;32.52;27.04;98186.25;6222288;28;20227;-70
2022/07/13 11:03:05;;;;;;;1.27;0.70;;;;;;;32.49;25.94;98178.53;6245336;28;20417;-73
2022/07/13 11:06:12;;;;;;;0.70;0.70;;;;;;;32.57;26.80;98184.41;6175820;28;20232;-71
2022/07/13 11:09:20;;;;;;;1.25;0.80;;;;;;;32.97;26.51;98181.41;6176266;28;20677;-73
2022/07/13 11:12:23;;;;;;;1.67;1.00;;;;;;;32.81;26.06;98174.09;6176547;28;20248;-72
2022/07/13 11:15:48;;;;;;;2.25;1.00;;;;;;;33.17;25.71;98180.00;6176814;28;21040;-72
2022/07/13 11:18:54;;;;;;;1.08;0.77;;;;;;;33.66;25.27;98169.84;6175415;28;20774;-71
2022/07/13 11:25:58;;;;;;;0.60;0.60;;;;;;;33.67;24.87;98155.91;6176147;28;20225;-73
2022/07/13 11:29:06;;;;;;;2.03;0.90;;;;;;;33.36;24.58;98167.66;6176459;28;20315;-72
2022/07/13 11:32:12;;;;;;;1.77;0.80;;;;;;;33.50;24.97;98174.38;6176929;28;20283;-72
2022/07/13 11:35:14;;;;;;;2.42;0.70;;;;;;;33.80;25.07;98171.13;6174823;28;20232;-71
2022/07/13 11:38:19;;;;;;;0.90;0.77;;;;;;;33.63;24.69;98163.00;6176612;28;20225;-71
2022/07/13 11:41:23;;;;;;;0.80;0.80;;;;;;;33.60;24.39;98143.53;6201827;28;20606;-73
2022/07/13 11:44:30;;;;;;;1.65;0.80;;;;;;;33.96;24.33;98158.38;6252037;28;20604;-71
2022/07/13 11:47:33;;;;;;;1.85;0.75;;;;;;;34.46;24.25;98154.38;6250802;28;20776;-72
2022/07/13 11:50:50;;;;;;;3.65;0.80;;;;;;;34.90;23.51;98144.75;6252377;28;20678;-70
2022/07/13 11:53:52;;;;;;;0.68;0.68;;;;;;;35.08;23.09;98136.03;6251691;28;20255;-71
2022/07/13 11:56:56;;;;;;;3.35;0.90;;;;;;;33.75;24.48;98131.91;6234324;28;20261;-71
2022/07/13 12:00:07;;;;;;;1.20;0.82;;;;;;;33.59;24.33;98137.22;6217754;28;20233;-71
2022/07/13 13:02:43;;;;;;;1.02;0.65;;;;;;;35.00;21.71;98070.72;3841402;28;20235;-70
2022/07/13 13:05:46;;;;;;;0.70;0.70;;;;;;;33.96;23.31;98070.72;6255576;28;20710;-72
2022/07/13 13:08:48;;;;;;;1.08;0.90;;;;;;;33.42;23.50;98061.81;6238061;28;20235;-71
2022/07/13 13:11:57;;;;;;;1.27;0.80;;;;;;;33.42;22.86;98059.06;6239850;28;20223;-72
2022/07/13 13:14:59;;;;;;;0.68;0.63;;;;;;;33.69;23.37;98057.91;6254670;28;20231;-71
2022/07/13 13:18:02;;;;;;;0.70;0.70;;;;;;;34.49;21.74;98045.00;6237176;28;20219;-71
2022/07/13 13:21:04;;;;;;;1.10;0.63;;;;;;;34.92;20.92;98065.75;6236957;28;20211;-72
2022/07/13 13:24:07;;;;;;;1.05;0.70;;;;;;;35.46;19.83;98049.66;6254683;28;20282;-71
2022/07/13 13:27:10;;;;;;;1.25;0.70;;;;;;;36.37;20.69;98040.47;6253994;28;20227;-73
2022/07/13 13:30:44;;;;;;;0.60;0.60;;;;;;;36.07;19.45;98038.63;6254197;28;20373;-72
2022/07/13 13:33:46;;;;;;;0.98;0.73;;;;;;;35.95;19.87;98043.59;6228490;28;20302;-72
2022/07/13 13:37:08;;;;;;;1.58;0.70;;;;;;;36.57;20.79;98039.56;6244909;28;20269;-72
2022/07/13 13:40:11;;;;;;;1.67;0.80;;;;;;;37.31;19.67;98039.47;6254367;28;20289;-73
2022/07/13 13:43:13;;;;;;;1.70;0.90;;;;;;;37.76;18.82;98029.16;6228576;28;20326;-73
2022/07/13 13:46:15;;;;;;;1.75;1.00;;;;;;;38.45;18.61;98033.41;6236064;28;20241;-67
2022/07/13 13:49:18;;;;;;;0.80;0.60;;;;;;;38.41;18.18;98035.13;6254434;28;20764;-67
2022/07/13 13:52:20;;;;;;;2.55;0.70;;;;;;;38.36;17.59;98036.00;6254927;28;20266;-67
2022/07/13 13:55:22;;;;;;;2.15;0.57;;;;;;;37.79;17.31;98041.56;6253802;28;20266;-67
2022/07/13 13:58:24;;;;;;;0.70;0.70;;;;;;;37.67;17.30;98034.50;6255088;28;20577;-67
2022/07/13 14:01:26;;;;;;;1.40;0.65;;;;;;;37.93;17.55;98035.09;6254933;28;20222;-68
2022/07/13 14:04:29;;;;;;;1.20;0.70;;;;;;;38.69;17.18;98020.44;6190570;28;20239;-69
2022/07/13 14:07:31;;;;;;;0.52;0.50;;;;;;;39.70;17.17;98011.72;6253434;28;20235;-73
2022/07/13 14:10:33;;;;;;;1.17;0.70;;;;;;;40.27;16.97;98021.44;6252762;28;20317;-71
2022/07/13 14:13:35;;;;;;;0.90;0.73;;;;;;;40.87;16.45;98013.81;6235910;28;20231;-72
2022/07/13 14:16:37;;;;;;;1.00;0.63;;;;;;;42.58;15.05;98015.25;6253843;28;20223;-73
2022/07/13 14:19:45;;;;;;;1.85;0.60;;;;;;;43.61;13.37;98013.69;6252795;28;20317;-72
2022/07/13 14:23:07;;;;;;;0.65;0.55;;;;;;;45.09;12.81;98007.09;6252172;28;20239;-72
2022/07/13 14:26:09;;;;;;;1.25;0.70;;;;;;;46.16;12.01;98003.41;6253476;28;20234;-71
2022/07/13 14:29:11;;;;;;;0.65;0.60;;;;;;;46.89;11.63;97993.03;6254002;28;20300;-71
2022/07/13 14:32:13;;;;;;;2.63;1.20;;;;;;;47.24;11.54;98000.88;6234700;28;20313;-70
2022/07/13 14:35:32;;;;;;;3.47;0.90;;;;;;;47.60;11.42;97997.13;6235400;28;20231;-71
2022/07/13 14:38:35;;;;;;;0.75;0.70;;;;;;;48.28;10.06;97991.34;6235581;28;20761;-69
2022/07/13 14:41:41;;;;;;;0.73;0.63;;;;;;;48.44;10.42;98004.16;6253433;28;20346;-72
2022/07/13 14:44:45;;;;;;;0.88;0.60;;;;;;;48.69;10.41;98001.13;6234899;28;20784;-71
2022/07/13 14:47:54;;;;;;;1.88;0.88;;;;;;;48.41;10.55;97998.47;6253132;28;20284;-71
2022/07/13 14:51:04;;;;;;;0.77;0.73;;;;;;;47.93;10.67;98000.44;6253060;28;20211;-69
2022/07/13 14:54:12;;;;;;;0.98;0.68;;;;;;;48.34;10.24;97995.47;6235778;28;20222;-71
2022/07/13 14:57:14;;;;;;;1.45;0.80;;;;;;;48.43;10.52;98007.28;6253151;28;21024;-71
2022/07/13 15:00:16;;;;;;;21.65;4.10;;;;;;;47.55;9.98;98006.59;6252407;28;20219;-70
2022/07/13 15:03:18;;;;;;;1.08;0.60;;;;;;;47.76;10.34;97997.16;6252229;28;20829;-70
2022/07/13 15:06:20;;;;;;;0.60;0.60;;;;;;;48.23;10.20;98005.59;6235563;28;20207;-70
2022/07/13 15:09:22;;;;;;;0.82;0.65;;;;;;;48.54;9.94;97990.75;6236991;28;20373;-71
2022/07/13 15:12:44;;;;;;;1.70;0.55;;;;;;;47.26;10.59;97999.34;6250408;28;20233;-70
2022/07/13 15:15:46;;;;;;;0.70;0.70;;;;;;;46.92;10.56;97988.75;6252727;28;20317;-72
2022/07/13 15:18:48;;;;;;;0.68;0.68;;;;;;;47.18;10.50;98003.13;6251881;28;20646;-73
2022/07/13 15:21:51;;;;;;;0.60;0.60;;;;;;;47.32;10.90;97999.94;6252869;28;20242;-72
2022/07/13 15:24:53;;;;;;;0.55;0.55;;;;;;;47.59;10.65;97984.31;6251888;28;20364;-70
2022/07/13 15:27:55;;;;;;;1.45;0.70;;;;;;;48.58;10.54;97986.88;6252633;28;20238;-72
2022/07/13 15:30:57;;;;;;;1.98;0.80;;;;;;;48.45;10.04;97988.16;6252655;28;20349;-72
2022/07/13 15:33:59;;;;;;;2.63;0.70;;;;;;;48.77;10.15;97986.91;6252064;28;20376;-71
2022/07/13 15:37:02;;;;;;;0.57;0.57;;;;;;;48.73;10.52;97988.00;6253296;28;20230;-73
2022/07/13 15:40:04;;;;;;;0.85;0.55;;;;;;;48.07;9.74;97986.00;6248457;28;20235;-72
2022/07/13 15:43:08;;;;;;;0.82;0.52;;;;;;;47.65;10.27;97977.25;6252847;28;20242;-71